createdAt,value
2019-05-26T00:00:59.751Z,13.58
2019-05-26T00:03:28.766Z,13.53
2019-05-26T00:05:57.699Z,13.52
2019-05-26T00:08:26.712Z,13.52
2019-05-26T00:10:55.440Z,13.52
2019-05-26T00:13:24.529Z,13.50
2019-05-26T00:15:53.165Z,13.44
2019-05-26T00:18:21.785Z,13.45
2019-05-26T00:20:50.353Z,13.49
2019-05-26T00:23:19.352Z,13.46
2019-05-26T00:25:48.888Z,13.43
2019-05-26T00:28:17.505Z,13.31
2019-05-26T00:30:46.400Z,13.35
2019-05-26T00:33:15.318Z,13.29
2019-05-26T00:35:44.030Z,13.25
2019-05-26T00:38:12.743Z,13.23
2019-05-26T00:40:41.371Z,13.21
2019-05-26T00:43:10.534Z,13.19
2019-05-26T00:45:39.389Z,13.28
2019-05-26T00:48:09.076Z,13.26
2019-05-26T00:50:38.506Z,13.18
2019-05-26T00:53:07.223Z,13.23
2019-05-26T00:55:36.148Z,13.14
2019-05-26T00:58:04.779Z,13.14
2019-05-26T01:00:44.000Z,13.15
2019-05-26T01:03:14.035Z,13.09
2019-05-26T01:05:43.650Z,13.00
2019-05-26T01:08:12.372Z,12.94
2019-05-26T01:10:41.408Z,12.86
2019-05-26T01:13:10.107Z,12.89
2019-05-26T01:15:39.014Z,12.92
2019-05-26T01:18:08.500Z,12.84
2019-05-26T01:20:37.420Z,12.81
2019-05-26T01:23:06.066Z,12.79
2019-05-26T01:25:35.032Z,12.74
2019-05-26T01:28:04.716Z,12.73
2019-05-26T01:30:39.349Z,12.75
2019-05-26T01:33:08.743Z,12.73
2019-05-26T01:35:41.564Z,12.72
2019-05-26T01:38:23.113Z,12.67
2019-05-26T01:40:44.909Z,12.65
2019-05-26T01:43:13.955Z,12.64
2019-05-26T01:45:42.600Z,12.59
2019-05-26T01:48:11.234Z,12.57
2019-05-26T01:50:39.920Z,12.54
2019-05-26T01:53:08.978Z,12.51
2019-05-26T01:55:38.143Z,12.49
2019-05-26T01:58:07.702Z,12.48
2019-05-26T02:00:36.351Z,12.41
2019-05-26T02:03:05.601Z,12.36
2019-05-26T02:05:34.241Z,12.35
2019-05-26T02:08:03.761Z,12.32
2019-05-26T02:10:32.761Z,12.29
2019-05-26T02:13:01.565Z,12.28
2019-05-26T02:15:30.714Z,12.23
2019-05-26T02:17:59.565Z,12.19
2019-05-26T02:20:28.340Z,12.19
2019-05-26T02:22:56.985Z,12.17
2019-05-26T02:25:26.527Z,12.16
2019-05-26T02:27:56.112Z,12.15
2019-05-26T02:30:25.024Z,12.11
2019-05-26T02:32:53.969Z,12.04
2019-05-26T02:35:22.825Z,12.01
2019-05-26T02:37:51.677Z,12.01
2019-05-26T02:40:21.787Z,12.01
2019-05-26T02:42:50.436Z,11.95
2019-05-26T02:45:22.060Z,11.94
2019-05-26T02:47:51.099Z,11.91
2019-05-26T02:50:20.512Z,11.91
2019-05-26T02:52:49.158Z,11.89
2019-05-26T02:55:19.739Z,11.88
2019-05-26T02:57:50.082Z,11.86
2019-05-26T03:00:25.546Z,11.88
2019-05-26T03:02:55.249Z,11.85
2019-05-26T03:05:23.981Z,11.85
2019-05-26T03:07:53.755Z,11.85
2019-05-26T03:10:23.418Z,11.84
2019-05-26T03:12:53.838Z,11.87
2019-05-26T03:15:23.642Z,11.89
2019-05-26T03:17:54.829Z,12.00
2019-05-26T03:20:23.756Z,11.97
2019-05-26T03:22:56.658Z,11.91
2019-05-26T03:25:25.580Z,11.86
2019-05-26T03:27:54.327Z,11.88
2019-05-26T03:30:25.438Z,11.91
2019-05-26T03:32:54.734Z,11.96
2019-05-26T03:35:24.266Z,12.03
2019-05-26T03:37:53.059Z,12.02
2019-05-26T03:40:22.029Z,12.05
2019-05-26T03:42:51.571Z,12.12
2019-05-26T03:45:31.592Z,12.09
2019-05-26T03:48:01.063Z,12.17
2019-05-26T03:50:29.714Z,12.25
2019-05-26T03:52:58.361Z,12.32
2019-05-26T03:55:28.027Z,12.38
2019-05-26T03:57:56.689Z,12.40
2019-05-26T04:00:25.327Z,12.48
2019-05-26T04:02:54.985Z,12.56
2019-05-26T04:05:24.599Z,12.59
2019-05-26T04:07:54.058Z,12.64
2019-05-26T04:10:23.085Z,12.70
2019-05-26T04:12:52.088Z,12.76
2019-05-26T04:15:21.309Z,12.76
2019-05-26T04:17:50.072Z,12.85
2019-05-26T04:20:18.756Z,12.89
2019-05-26T04:22:47.606Z,12.94
2019-05-26T04:25:16.237Z,13.07
2019-05-26T04:27:45.787Z,13.14
2019-05-26T04:30:15.065Z,13.18
2019-05-26T04:32:43.933Z,13.23
2019-05-26T04:35:13.696Z,13.33
2019-05-26T04:37:43.379Z,13.38
2019-05-26T04:40:26.371Z,13.51
2019-05-26T04:42:43.710Z,13.61
2019-05-26T04:45:14.853Z,13.61
2019-05-26T04:47:43.837Z,13.74
2019-05-26T04:50:12.941Z,13.75
2019-05-26T04:52:41.968Z,13.87
2019-05-26T04:55:10.907Z,13.99
2019-05-26T04:57:40.420Z,13.98
2019-05-26T05:00:10.480Z,14.09
2019-05-26T05:02:41.686Z,14.21
2019-05-26T05:05:11.578Z,14.26
2019-05-26T05:07:39.973Z,14.36
2019-05-26T05:10:08.798Z,14.52
2019-05-26T05:12:37.490Z,14.64
2019-05-26T05:15:09.442Z,14.80
2019-05-26T05:17:38.079Z,14.97
2019-05-26T05:20:08.025Z,15.17
2019-05-26T05:22:36.655Z,15.30
2019-05-26T05:25:14.685Z,15.49
2019-05-26T05:27:39.944Z,15.63
2019-05-26T05:30:09.016Z,15.76
2019-05-26T05:32:37.644Z,15.94
2019-05-26T05:35:08.733Z,16.12
2019-05-26T05:37:37.297Z,16.28
2019-05-26T05:40:08.287Z,16.49
2019-05-26T05:42:36.929Z,16.65
2019-05-26T05:45:08.236Z,16.91
2019-05-26T05:47:37.009Z,17.23
2019-05-26T05:50:07.446Z,17.56
2019-05-26T05:52:36.102Z,17.93
2019-05-26T05:55:06.035Z,18.07
2019-05-26T05:57:34.711Z,18.44
2019-05-26T06:00:05.219Z,18.66
2019-05-26T06:02:33.860Z,18.94
2019-05-26T06:05:02.424Z,19.22
2019-05-26T06:07:31.056Z,19.49
2019-05-26T06:09:59.698Z,19.69
2019-05-26T06:12:28.336Z,19.91
2019-05-26T06:14:57.116Z,20.14
2019-05-26T06:17:25.681Z,20.27
2019-05-26T06:19:54.313Z,20.46
2019-05-26T06:22:22.954Z,20.62
2019-05-26T06:24:51.593Z,20.72
2019-05-26T06:27:20.235Z,20.86
2019-05-26T06:29:58.433Z,20.98
2019-05-26T06:32:19.243Z,21.16
2019-05-26T06:34:47.804Z,21.32
2019-05-26T06:37:16.414Z,21.36
2019-05-26T06:39:45.000Z,21.42
2019-05-26T06:42:13.639Z,21.55
2019-05-26T06:44:52.952Z,21.89
2019-05-26T06:47:12.753Z,22.08
2019-05-26T06:49:41.404Z,22.19
2019-05-26T06:52:09.999Z,22.18
2019-05-26T06:54:38.636Z,22.40
2019-05-26T06:57:07.271Z,22.54
2019-05-26T06:59:36.066Z,22.70
2019-05-26T07:02:05.008Z,22.87
2019-05-26T07:04:33.651Z,23.06
2019-05-26T07:07:02.292Z,23.28
2019-05-26T07:09:30.927Z,23.28
2019-05-26T07:12:00.599Z,23.40
2019-05-26T07:14:29.342Z,23.76
2019-05-26T07:16:57.960Z,24.28
2019-05-26T07:19:26.626Z,24.76
2019-05-26T07:21:55.266Z,24.98
2019-05-26T07:24:23.904Z,25.06
2019-05-26T07:26:52.390Z,25.14
2019-05-26T07:29:21.009Z,25.57
2019-05-26T07:31:49.572Z,26.05
2019-05-26T07:34:18.335Z,26.73
2019-05-26T07:36:46.865Z,27.24
2019-05-26T07:39:15.514Z,27.04
2019-05-26T07:41:44.104Z,27.79
2019-05-26T07:44:12.753Z,28.65
2019-05-26T07:46:41.297Z,30.12
2019-05-26T07:49:09.941Z,31.18
2019-05-26T07:51:38.569Z,32.78
2019-05-26T07:54:07.232Z,34.28
2019-05-26T07:56:35.790Z,36.26
2019-05-26T07:59:04.751Z,38.01
2019-05-26T08:01:36.056Z,41.02
2019-05-26T08:04:03.726Z,43.11
2019-05-26T08:06:32.285Z,44.05
2019-05-26T08:09:00.915Z,45.69
2019-05-26T08:11:29.570Z,47.33
2019-05-26T08:13:58.193Z,47.55
2019-05-26T08:16:26.819Z,48.22
2019-05-26T08:18:55.445Z,47.54
2019-05-26T08:21:24.300Z,47.13
2019-05-26T08:23:52.922Z,49.18
2019-05-26T08:26:21.603Z,50.10
2019-05-26T08:28:50.908Z,49.59
2019-05-26T08:31:19.538Z,50.14
2019-05-26T08:33:48.182Z,50.89
2019-05-26T08:36:16.894Z,51.23
2019-05-26T08:38:45.674Z,52.20
2019-05-26T08:41:14.297Z,52.78
2019-05-26T08:43:42.923Z,53.73
2019-05-26T08:46:11.575Z,52.17
2019-05-26T08:48:40.190Z,53.44
2019-05-26T08:51:08.827Z,52.75
2019-05-26T08:53:37.465Z,53.75
2019-05-26T08:56:06.003Z,53.96
2019-05-26T08:58:34.656Z,53.61
2019-05-26T09:01:03.283Z,54.76
2019-05-26T09:03:31.924Z,55.19
2019-05-26T09:06:00.553Z,54.85
2019-05-26T09:08:29.146Z,56.03
2019-05-26T09:10:57.783Z,55.18
2019-05-26T09:13:26.493Z,54.98
2019-05-26T09:15:55.124Z,55.71
2019-05-26T09:18:23.838Z,54.20
2019-05-26T09:20:52.543Z,54.99
2019-05-26T09:23:21.168Z,55.58
2019-05-26T09:25:49.802Z,54.68
2019-05-26T09:28:18.429Z,55.23
2019-05-26T09:30:47.135Z,55.43
2019-05-26T09:33:15.797Z,56.37
2019-05-26T09:35:44.549Z,53.05
2019-05-26T09:38:13.199Z,54.94
2019-05-26T09:40:41.892Z,55.73
2019-05-26T09:43:15.979Z,54.53
2019-05-26T09:45:40.989Z,52.03
2019-05-26T09:48:09.612Z,53.97
2019-05-26T09:50:38.256Z,53.85
2019-05-26T09:53:06.891Z,52.67
2019-05-26T09:55:35.634Z,52.57
2019-05-26T09:58:04.211Z,50.54
2019-05-26T10:00:32.884Z,50.54
2019-05-26T10:03:01.512Z,50.02
2019-05-26T10:05:30.183Z,50.76
2019-05-26T10:07:58.928Z,50.85
2019-05-26T10:10:27.546Z,52.08
2019-05-26T10:12:56.352Z,52.08
2019-05-26T10:15:25.006Z,53.58
2019-05-26T10:17:53.554Z,54.28
2019-05-26T10:20:22.193Z,53.59
2019-05-26T10:22:50.913Z,53.07
2019-05-26T10:25:19.547Z,53.59
2019-05-26T10:27:48.169Z,54.17
2019-05-26T10:30:17.244Z,54.09
2019-05-26T10:32:45.874Z,54.10
2019-05-26T10:35:15.705Z,51.99
2019-05-26T10:37:44.340Z,51.83
2019-05-26T10:40:14.236Z,52.74
2019-05-26T10:42:42.793Z,52.50
2019-05-26T10:45:11.821Z,50.65
2019-05-26T10:47:40.583Z,48.55
2019-05-26T10:50:10.033Z,47.38
2019-05-26T10:52:38.647Z,45.83
2019-05-26T10:55:08.188Z,43.54
2019-05-26T10:57:36.812Z,42.29
2019-05-26T11:00:10.620Z,41.52
2019-05-26T11:02:39.249Z,40.33
2019-05-26T11:05:08.360Z,40.04
2019-05-26T11:07:37.117Z,39.52
2019-05-26T11:10:07.572Z,38.93
2019-05-26T11:12:36.209Z,38.75
2019-05-26T11:15:07.805Z,38.47
2019-05-26T11:17:36.443Z,37.79
2019-05-26T11:20:09.890Z,37.40
2019-05-26T11:22:38.551Z,36.71
2019-05-26T11:25:07.876Z,36.41
2019-05-26T11:27:36.533Z,36.28
2019-05-26T11:30:10.024Z,35.81
2019-05-26T11:32:38.674Z,34.64
2019-05-26T11:35:08.214Z,34.39
2019-05-26T11:37:36.892Z,33.51
2019-05-26T11:40:09.843Z,33.31
2019-05-26T11:42:38.557Z,32.64
2019-05-26T11:45:08.905Z,32.34
2019-05-26T11:47:37.541Z,31.90
2019-05-26T11:50:07.767Z,31.66
2019-05-26T11:52:36.496Z,31.41
2019-05-26T11:55:08.693Z,31.22
2019-05-26T11:57:37.666Z,30.75
2019-05-26T12:00:08.802Z,30.68
2019-05-26T12:02:38.381Z,30.57
2019-05-26T12:05:08.211Z,30.46
2019-05-26T12:07:36.878Z,30.50
2019-05-26T12:10:07.666Z,30.55
2019-05-26T12:12:36.352Z,30.58
2019-05-26T12:15:07.259Z,30.46
2019-05-26T12:17:36.082Z,30.74
2019-05-26T12:20:06.434Z,30.99
2019-05-26T12:22:35.157Z,30.89
2019-05-26T12:25:05.625Z,30.92
2019-05-26T12:27:34.260Z,30.99
2019-05-26T12:30:03.025Z,31.00
2019-05-26T12:32:31.651Z,31.25
2019-05-26T12:35:00.214Z,31.45
2019-05-26T12:37:28.852Z,31.55
2019-05-26T12:39:57.538Z,31.42
2019-05-26T12:42:26.204Z,31.35
2019-05-26T12:44:54.857Z,31.24
2019-05-26T12:47:23.432Z,30.77
2019-05-26T12:49:52.075Z,30.48
2019-05-26T12:52:20.776Z,30.24
2019-05-26T12:54:49.343Z,30.12
2019-05-26T12:57:18.009Z,30.04
2019-05-26T12:59:46.637Z,29.67
2019-05-26T13:02:15.300Z,29.66
2019-05-26T13:04:43.942Z,29.68
2019-05-26T13:07:12.565Z,29.61
2019-05-26T13:09:41.271Z,29.77
2019-05-26T13:12:09.909Z,29.83
2019-05-26T13:14:38.534Z,30.09
2019-05-26T13:17:07.097Z,30.31
2019-05-26T13:19:35.723Z,30.21
2019-05-26T13:22:04.954Z,30.05
2019-05-26T13:24:33.508Z,30.09
2019-05-26T13:27:02.241Z,30.14
2019-05-26T13:29:30.892Z,30.31
2019-05-26T13:31:59.511Z,30.21
2019-05-26T13:34:28.149Z,29.80
2019-05-26T13:36:56.784Z,29.88
2019-05-26T13:39:25.440Z,29.91
2019-05-26T13:41:54.051Z,29.66
2019-05-26T13:44:22.668Z,29.64
2019-05-26T13:46:51.693Z,29.51
2019-05-26T13:49:20.334Z,29.33
2019-05-26T13:51:50.478Z,29.12
2019-05-26T13:54:19.347Z,28.57
2019-05-26T13:56:47.917Z,28.38
2019-05-26T13:59:16.557Z,28.34
2019-05-26T14:01:45.184Z,28.30
2019-05-26T14:04:13.821Z,27.89
2019-05-26T14:06:42.464Z,28.11
2019-05-26T14:09:11.144Z,27.73
2019-05-26T14:11:39.779Z,28.03
2019-05-26T14:14:08.403Z,28.19
2019-05-26T14:16:38.781Z,28.03
2019-05-26T14:19:07.434Z,28.11
2019-05-26T14:21:36.164Z,28.08
2019-05-26T14:24:05.247Z,27.99
2019-05-26T14:26:33.881Z,27.99
2019-05-26T14:29:02.526Z,28.00
2019-05-26T14:31:31.123Z,27.84
2019-05-26T14:33:59.857Z,27.66
2019-05-26T14:36:28.488Z,27.68
2019-05-26T14:38:57.162Z,27.76
2019-05-26T14:41:25.810Z,27.96
2019-05-26T14:43:54.566Z,28.09
2019-05-26T14:46:23.218Z,28.21
2019-05-26T14:48:51.883Z,28.17
2019-05-26T14:51:20.533Z,27.98
2019-05-26T14:53:49.157Z,27.96
2019-05-26T14:56:17.789Z,28.00
2019-05-26T14:58:46.333Z,27.96
2019-05-26T15:01:16.513Z,28.03
2019-05-26T15:03:45.238Z,28.02
2019-05-26T15:06:13.890Z,28.06
2019-05-26T15:08:42.543Z,28.16
2019-05-26T15:11:11.205Z,28.28
2019-05-26T15:13:39.838Z,28.15
2019-05-26T15:16:10.204Z,28.01
2019-05-26T15:18:38.863Z,27.83
2019-05-26T15:21:07.544Z,27.68
2019-05-26T15:23:36.175Z,27.71
2019-05-26T15:26:05.565Z,27.52
2019-05-26T15:28:34.415Z,27.49
2019-05-26T15:31:03.056Z,27.35
2019-05-26T15:33:31.690Z,27.22
2019-05-26T15:36:00.395Z,27.16
2019-05-26T15:38:41.967Z,27.06
2019-05-26T15:40:59.467Z,27.04
2019-05-26T15:43:28.098Z,26.99
2019-05-26T15:45:56.731Z,26.91
2019-05-26T15:48:25.374Z,26.91
2019-05-26T15:50:54.009Z,26.87
2019-05-26T15:53:22.644Z,26.83
2019-05-26T15:55:51.279Z,26.75
2019-05-26T15:58:19.978Z,26.80
2019-05-26T16:00:48.622Z,26.75
2019-05-26T16:03:17.357Z,26.71
2019-05-26T16:05:45.998Z,26.62
2019-05-26T16:08:15.112Z,26.59
2019-05-26T16:10:43.836Z,26.52
2019-05-26T16:13:12.558Z,26.39
2019-05-26T16:15:41.308Z,26.14
2019-05-26T16:18:09.940Z,26.03
2019-05-26T16:20:38.592Z,25.98
2019-05-26T16:23:08.876Z,25.83
2019-05-26T16:25:37.637Z,25.81
2019-05-26T16:28:06.293Z,25.75
2019-05-26T16:30:34.920Z,25.66
2019-05-26T16:33:03.583Z,25.58
2019-05-26T16:35:32.224Z,25.41
2019-05-26T16:38:00.810Z,25.33
2019-05-26T16:40:29.525Z,25.26
2019-05-26T16:42:58.184Z,25.09
2019-05-26T16:45:26.896Z,25.07
2019-05-26T16:47:55.523Z,25.08
2019-05-26T16:50:24.253Z,25.10
2019-05-26T16:52:54.526Z,25.12
2019-05-26T16:55:23.403Z,25.16
2019-05-26T16:57:52.227Z,25.14
2019-05-26T17:00:21.051Z,25.16
2019-05-26T17:02:49.687Z,25.22
2019-05-26T17:05:18.339Z,25.23
2019-05-26T17:07:50.235Z,25.29
2019-05-26T17:10:17.444Z,25.32
2019-05-26T17:12:46.066Z,25.32
2019-05-26T17:15:14.749Z,25.25
2019-05-26T17:17:43.394Z,25.18
2019-05-26T17:20:12.628Z,25.07
2019-05-26T17:22:41.347Z,25.00
2019-05-26T17:25:10.177Z,24.96
2019-05-26T17:27:38.829Z,24.87
2019-05-26T17:30:08.468Z,24.73
2019-05-26T17:32:37.283Z,24.41
2019-05-26T17:35:07.128Z,24.32
2019-05-26T17:37:35.776Z,24.19
2019-05-26T17:40:06.270Z,24.01
2019-05-26T17:42:35.030Z,23.96
2019-05-26T17:45:05.299Z,23.78
2019-05-26T17:47:33.943Z,23.72
2019-05-26T17:50:02.945Z,23.62
2019-05-26T17:52:31.588Z,23.56
2019-05-26T17:55:00.224Z,23.49
2019-05-26T17:57:28.881Z,23.47
2019-05-26T17:59:57.520Z,23.39
2019-05-26T18:02:26.263Z,23.33
2019-05-26T18:04:54.920Z,23.25
2019-05-26T18:07:23.569Z,23.21
2019-05-26T18:09:52.202Z,23.11
2019-05-26T18:12:21.031Z,23.10
2019-05-26T18:14:49.666Z,23.09
2019-05-26T18:17:18.294Z,23.02
2019-05-26T18:19:47.865Z,23.00
2019-05-26T18:22:16.539Z,23.01
2019-05-26T18:24:54.348Z,22.94
2019-05-26T18:27:15.839Z,22.91
2019-05-26T18:29:46.644Z,22.87
2019-05-26T18:32:15.522Z,22.82
2019-05-26T18:34:44.073Z,22.77
2019-05-26T18:37:13.583Z,22.79
2019-05-26T18:39:44.232Z,22.63
2019-05-26T18:42:13.774Z,22.63
2019-05-26T18:44:43.419Z,22.63
2019-05-26T18:47:12.424Z,22.59
2019-05-26T18:49:41.476Z,22.62
2019-05-26T18:52:11.064Z,22.60
2019-05-26T18:54:40.589Z,22.52
2019-05-26T18:57:09.425Z,22.47
2019-05-26T18:59:37.889Z,22.46
2019-05-26T19:02:07.476Z,22.45
2019-05-26T19:04:36.157Z,22.41
2019-05-26T19:07:09.692Z,22.36
2019-05-26T19:09:39.418Z,22.26
2019-05-26T19:12:08.061Z,22.22
2019-05-26T19:14:37.016Z,22.18
2019-05-26T19:17:06.232Z,22.16
2019-05-26T19:19:35.769Z,22.14
2019-05-26T19:22:04.542Z,22.14
2019-05-26T19:24:33.547Z,22.16
2019-05-26T19:27:03.214Z,22.15
2019-05-26T19:29:32.303Z,22.03
2019-05-26T19:32:01.891Z,22.07
2019-05-26T19:34:31.664Z,22.03
2019-05-26T19:37:01.243Z,22.04
2019-05-26T19:39:31.054Z,22.06
2019-05-26T19:42:00.623Z,22.05
2019-05-26T19:44:29.331Z,22.12
2019-05-26T19:46:59.907Z,22.00
2019-05-26T19:49:30.110Z,22.08
2019-05-26T19:52:00.839Z,22.09
2019-05-26T19:54:31.381Z,22.10
2019-05-26T19:57:01.065Z,22.14
2019-05-26T19:59:30.043Z,22.08
2019-05-26T20:01:59.058Z,22.07
2019-05-26T20:04:28.027Z,22.01
2019-05-26T20:06:58.339Z,21.97
2019-05-26T20:09:28.876Z,21.89
2019-05-26T20:11:57.496Z,21.82
2019-05-26T20:14:28.058Z,21.71
2019-05-26T20:16:57.075Z,21.62
2019-05-26T20:19:27.527Z,21.50
2019-05-26T20:21:56.301Z,21.52
2019-05-26T20:24:25.261Z,21.45
2019-05-26T20:26:54.742Z,21.49
2019-05-26T20:29:27.069Z,21.33
2019-05-26T20:31:56.052Z,21.23
2019-05-26T20:34:24.684Z,21.18
2019-05-26T20:36:54.441Z,21.13
2019-05-26T20:39:23.418Z,21.16
2019-05-26T20:41:52.401Z,21.14
2019-05-26T20:44:21.979Z,21.10
2019-05-26T20:46:51.444Z,21.09
2019-05-26T20:49:21.040Z,20.73
2019-05-26T20:51:50.485Z,20.95
2019-05-26T20:54:19.581Z,20.89
2019-05-26T20:56:48.156Z,20.88
2019-05-26T20:59:17.106Z,20.85
2019-05-26T21:01:45.740Z,20.87
2019-05-26T21:04:14.720Z,20.86
2019-05-26T21:06:44.311Z,20.88
2019-05-26T21:09:13.258Z,20.89
2019-05-26T21:11:41.898Z,20.91
2019-05-26T21:14:10.909Z,20.90
2019-05-26T21:16:40.492Z,20.93
2019-05-26T21:19:10.079Z,20.94
2019-05-26T21:21:39.033Z,20.93
2019-05-26T21:24:08.646Z,20.88
2019-05-26T21:26:38.135Z,20.89
2019-05-26T21:29:06.919Z,20.89
2019-05-26T21:31:35.884Z,20.86
2019-05-26T21:34:04.894Z,20.79
2019-05-26T21:36:33.945Z,20.71
2019-05-26T21:39:02.914Z,20.63
2019-05-26T21:41:31.564Z,20.48
2019-05-26T21:44:00.326Z,20.40
2019-05-26T21:46:29.953Z,20.34
2019-05-26T21:48:59.528Z,20.27
2019-05-26T21:51:28.145Z,20.18
2019-05-26T21:53:58.198Z,20.13
2019-05-26T21:56:27.150Z,20.08
2019-05-26T21:58:56.805Z,20.03
2019-05-26T22:01:25.757Z,19.88
2019-05-26T22:03:54.943Z,19.80
2019-05-26T22:06:24.555Z,19.82
2019-05-26T22:08:55.721Z,19.76
2019-05-26T22:11:25.139Z,19.74
2019-05-26T22:13:55.183Z,19.69
2019-05-26T22:16:24.865Z,19.64
2019-05-26T22:18:54.736Z,19.56
2019-05-26T22:21:23.671Z,19.52
2019-05-26T22:23:53.200Z,19.46
2019-05-26T22:26:22.784Z,19.35
2019-05-26T22:28:51.522Z,19.29
2019-05-26T22:31:21.688Z,19.24
2019-05-26T22:33:51.249Z,19.16
2019-05-26T22:36:20.786Z,19.11
2019-05-26T22:38:49.542Z,19.07
2019-05-26T22:41:18.166Z,19.02
2019-05-26T22:43:46.745Z,18.94
2019-05-26T22:46:15.294Z,18.91
2019-05-26T22:48:43.865Z,18.86
2019-05-26T22:51:12.499Z,18.82
2019-05-26T22:53:41.165Z,18.74
2019-05-26T22:56:09.798Z,18.71
2019-05-26T22:58:38.353Z,18.61
2019-05-26T23:01:07.027Z,18.56
2019-05-26T23:03:35.588Z,18.47
2019-05-26T23:06:04.426Z,18.46
2019-05-26T23:08:33.118Z,18.46
2019-05-26T23:11:01.746Z,18.47
2019-05-26T23:13:30.401Z,18.45
2019-05-26T23:15:59.030Z,18.46
2019-05-26T23:18:27.930Z,18.44
2019-05-26T23:20:56.578Z,18.42
2019-05-26T23:23:25.140Z,18.44
2019-05-26T23:25:53.716Z,18.43
2019-05-26T23:28:22.344Z,18.40
2019-05-26T23:30:51.030Z,18.38
2019-05-26T23:33:19.665Z,18.31
2019-05-26T23:35:48.301Z,18.35
2019-05-26T23:38:16.946Z,18.38
2019-05-26T23:40:45.607Z,18.32
2019-05-26T23:43:14.168Z,18.37
2019-05-26T23:45:42.794Z,18.24
2019-05-26T23:48:11.660Z,18.21
2019-05-26T23:50:40.280Z,18.21
2019-05-26T23:53:08.905Z,18.09
2019-05-26T23:55:37.544Z,18.17
2019-05-26T23:58:06.177Z,18.22
